sensor_id;sensor_type;location;lat;lon;timestamp;temperature;humidity
41547;DHT22;27271;45.412;10.852;2024-02-26T00:01:04;6.50;25.50
41547;DHT22;27271;45.412;10.852;2024-02-26T00:04:27;6.50;52.30
41547;DHT22;27271;45.412;10.852;2024-02-26T00:07:49;6.60;34.50
41547;DHT22;27271;45.412;10.852;2024-02-26T00:11:11;6.60;24.70
41547;DHT22;27271;45.412;10.852;2024-02-26T00:14:34;6.60;26.90
41547;DHT22;27271;45.412;10.852;2024-02-26T00:17:56;6.50;35.60
41547;DHT22;27271;45.412;10.852;2024-02-26T00:21:19;6.50;41.50
41547;DHT22;27271;45.412;10.852;2024-02-26T00:24:41;6.50;54.10
41547;DHT22;27271;45.412;10.852;2024-02-26T00:28:04;6.50;47.70
41547;DHT22;27271;45.412;10.852;2024-02-26T00:31:26;6.50;48.80
41547;DHT22;27271;45.412;10.852;2024-02-26T00:34:48;6.50;35.70
41547;DHT22;27271;45.412;10.852;2024-02-26T00:38:12;6.50;29.50
41547;DHT22;27271;45.412;10.852;2024-02-26T00:41:39;6.50;27.30
41547;DHT22;27271;45.412;10.852;2024-02-26T00:45:02;6.50;5.70
41547;DHT22;27271;45.412;10.852;2024-02-26T00:48:24;6.50;15.90
41547;DHT22;27271;45.412;10.852;2024-02-26T00:51:47;6.50;4.10
41547;DHT22;27271;45.412;10.852;2024-02-26T00:55:11;6.50;6.60
41547;DHT22;27271;45.412;10.852;2024-02-26T00:58:33;6.50;8.40
41547;DHT22;27271;45.412;10.852;2024-02-26T01:01:56;6.50;7.60
41547;DHT22;27271;45.412;10.852;2024-02-26T01:05:18;6.40;3.00
41547;DHT22;27271;45.412;10.852;2024-02-26T01:08:40;6.40;21.60
41547;DHT22;27271;45.412;10.852;2024-02-26T01:12:04;6.30;21.50
41547;DHT22;27271;45.412;10.852;2024-02-26T01:15:27;6.20;34.90
41547;DHT22;27271;45.412;10.852;2024-02-26T01:18:49;6.20;32.30
41547;DHT22;27271;45.412;10.852;2024-02-26T01:22:12;6.20;36.50
41547;DHT22;27271;45.412;10.852;2024-02-26T01:25:34;6.30;12.80
41547;DHT22;27271;45.412;10.852;2024-02-26T01:28:56;6.30;19.60
41547;DHT22;27271;45.412;10.852;2024-02-26T01:32:18;6.40;25.20
41547;DHT22;27271;45.412;10.852;2024-02-26T01:35:41;6.40;15.90
41547;DHT22;27271;45.412;10.852;2024-02-26T01:39:04;6.40;11.00
41547;DHT22;27271;45.412;10.852;2024-02-26T01:42:26;6.30;12.10
41547;DHT22;27271;45.412;10.852;2024-02-26T01:45:48;6.30;21.20
41547;DHT22;27271;45.412;10.852;2024-02-26T01:49:12;6.20;27.40
41547;DHT22;27271;45.412;10.852;2024-02-26T01:52:35;6.20;26.30
41547;DHT22;27271;45.412;10.852;2024-02-26T01:55:58;6.20;28.30
41547;DHT22;27271;45.412;10.852;2024-02-26T01:59:20;6.20;26.60
41547;DHT22;27271;45.412;10.852;2024-02-26T02:02:42;6.20;21.80
41547;DHT22;27271;45.412;10.852;2024-02-26T02:06:06;6.20;26.20
41547;DHT22;27271;45.412;10.852;2024-02-26T02:09:29;6.10;25.50
41547;DHT22;27271;45.412;10.852;2024-02-26T02:12:52;6.10;26.30
41547;DHT22;27271;45.412;10.852;2024-02-26T02:16:14;6.00;26.10
41547;DHT22;27271;45.412;10.852;2024-02-26T02:19:36;6.00;34.70
41547;DHT22;27271;45.412;10.852;2024-02-26T02:22:58;6.00;31.90
41547;DHT22;27271;45.412;10.852;2024-02-26T02:26:21;6.00;31.20
41547;DHT22;27271;45.412;10.852;2024-02-26T02:29:43;5.90;24.70
41547;DHT22;27271;45.412;10.852;2024-02-26T02:33:06;5.80;35.00
41547;DHT22;27271;45.412;10.852;2024-02-26T02:36:28;5.80;35.20
41547;DHT22;27271;45.412;10.852;2024-02-26T02:39:50;5.70;34.80
41547;DHT22;27271;45.412;10.852;2024-02-26T02:43:12;5.70;35.60
41547;DHT22;27271;45.412;10.852;2024-02-26T02:46:34;5.70;38.30
41547;DHT22;27271;45.412;10.852;2024-02-26T02:49:57;5.80;29.20
41547;DHT22;27271;45.412;10.852;2024-02-26T02:53:19;5.80;22.90
41547;DHT22;27271;45.412;10.852;2024-02-26T02:56:41;5.80;19.10
41547;DHT22;27271;45.412;10.852;2024-02-26T03:00:03;5.90;14.30
41547;DHT22;27271;45.412;10.852;2024-02-26T03:03:26;6.00;2.60
41547;DHT22;27271;45.412;10.852;2024-02-26T03:06:50;6.00;6.20
41547;DHT22;27271;45.412;10.852;2024-02-26T03:10:13;5.90;8.10
41547;DHT22;27271;45.412;10.852;2024-02-26T03:13:35;5.90;5.80
41547;DHT22;27271;45.412;10.852;2024-02-26T03:16:58;5.90;6.90
41547;DHT22;27271;45.412;10.852;2024-02-26T03:20:20;5.90;2.50
41547;DHT22;27271;45.412;10.852;2024-02-26T03:23:42;5.80;4.80
41547;DHT22;27271;45.412;10.852;2024-02-26T03:27:04;5.70;9.90
41547;DHT22;27271;45.412;10.852;2024-02-26T03:30:31;5.70;17.90
41547;DHT22;27271;45.412;10.852;2024-02-26T03:33:53;5.70;24.00
41547;DHT22;27271;45.412;10.852;2024-02-26T03:37:15;5.70;20.60
41547;DHT22;27271;45.412;10.852;2024-02-26T03:40:38;5.60;15.60
41547;DHT22;27271;45.412;10.852;2024-02-26T03:44:01;5.60;21.10
41547;DHT22;27271;45.412;10.852;2024-02-26T03:47:23;5.50;24.40
41547;DHT22;27271;45.412;10.852;2024-02-26T03:50:45;5.50;23.00
41547;DHT22;27271;45.412;10.852;2024-02-26T03:54:07;5.40;30.00
41547;DHT22;27271;45.412;10.852;2024-02-26T03:57:29;5.40;47.50
41547;DHT22;27271;45.412;10.852;2024-02-26T04:00:52;5.30;49.90
41547;DHT22;27271;45.412;10.852;2024-02-26T04:04:14;5.20;67.20
41547;DHT22;27271;45.412;10.852;2024-02-26T04:07:36;5.20;69.80
41547;DHT22;27271;45.412;10.852;2024-02-26T04:10:59;5.10;77.00
41547;DHT22;27271;45.412;10.852;2024-02-26T04:14:21;5.10;95.70
41547;DHT22;27271;45.412;10.852;2024-02-26T04:17:43;5.20;93.60
41547;DHT22;27271;45.412;10.852;2024-02-26T04:21:07;5.20;97.00
41547;DHT22;27271;45.412;10.852;2024-02-26T04:24:29;5.30;94.70
41547;DHT22;27271;45.412;10.852;2024-02-26T04:27:52;5.20;94.90
41547;DHT22;27271;45.412;10.852;2024-02-26T04:31:14;5.20;99.40
41547;DHT22;27271;45.412;10.852;2024-02-26T04:34:36;5.30;97.00
41547;DHT22;27271;45.412;10.852;2024-02-26T04:37:59;5.30;97.90
41547;DHT22;27271;45.412;10.852;2024-02-26T04:41:21;5.40;98.80
41547;DHT22;27271;45.412;10.852;2024-02-26T04:44:43;5.50;98.50
41547;DHT22;27271;45.412;10.852;2024-02-26T04:48:06;5.50;99.50
41547;DHT22;27271;45.412;10.852;2024-02-26T04:51:28;5.60;99.90
41547;DHT22;27271;45.412;10.852;2024-02-26T04:54:50;5.60;99.90
41547;DHT22;27271;45.412;10.852;2024-02-26T04:58:12;5.70;90.80
41547;DHT22;27271;45.412;10.852;2024-02-26T05:01:34;5.70;96.70
41547;DHT22;27271;45.412;10.852;2024-02-26T05:04:58;5.60;94.70
41547;DHT22;27271;45.412;10.852;2024-02-26T05:08:20;5.60;99.90
41547;DHT22;27271;45.412;10.852;2024-02-26T05:11:42;5.60;99.90
41547;DHT22;27271;45.412;10.852;2024-02-26T05:15:05;5.60;99.90
41547;DHT22;27271;45.412;10.852;2024-02-26T05:18:28;5.70;99.90
41547;DHT22;27271;45.412;10.852;2024-02-26T05:21:50;5.70;99.90
41547;DHT22;27271;45.412;10.852;2024-02-26T05:25:14;5.80;99.90
41547;DHT22;27271;45.412;10.852;2024-02-26T05:28:37;5.80;99.90
41547;DHT22;27271;45.412;10.852;2024-02-26T05:32:01;5.80;99.90
41547;DHT22;27271;45.412;10.852;2024-02-26T05:35:23;5.80;99.90
41547;DHT22;27271;45.412;10.852;2024-02-26T05:38:45;5.90;99.90
41547;DHT22;27271;45.412;10.852;2024-02-26T05:42:08;5.80;99.90
41547;DHT22;27271;45.412;10.852;2024-02-26T05:45:31;5.90;99.90
41547;DHT22;27271;45.412;10.852;2024-02-26T05:48:53;6.00;77.10
41547;DHT22;27271;45.412;10.852;2024-02-26T05:52:15;6.00;66.10
41547;DHT22;27271;45.412;10.852;2024-02-26T05:55:37;6.00;49.00
41547;DHT22;27271;45.412;10.852;2024-02-26T05:59:00;6.00;55.10
41547;DHT22;27271;45.412;10.852;2024-02-26T06:02:22;5.90;66.20
41547;DHT22;27271;45.412;10.852;2024-02-26T06:05:44;5.90;81.00
41547;DHT22;27271;45.412;10.852;2024-02-26T06:09:06;6.00;78.40
41547;DHT22;27271;45.412;10.852;2024-02-26T06:12:28;6.00;74.80
41547;DHT22;27271;45.412;10.852;2024-02-26T06:15:52;6.10;65.90
41547;DHT22;27271;45.412;10.852;2024-02-26T06:19:14;6.10;59.80
41547;DHT22;27271;45.412;10.852;2024-02-26T06:22:37;6.10;47.20
41547;DHT22;27271;45.412;10.852;2024-02-26T06:25:59;6.10;56.40
41547;DHT22;27271;45.412;10.852;2024-02-26T06:29:21;6.10;70.20
41547;DHT22;27271;45.412;10.852;2024-02-26T06:32:43;6.10;69.80
41547;DHT22;27271;45.412;10.852;2024-02-26T06:36:06;6.20;78.60
41547;DHT22;27271;45.412;10.852;2024-02-26T06:39:28;6.20;74.70
41547;DHT22;27271;45.412;10.852;2024-02-26T06:42:50;6.20;87.60
41547;DHT22;27271;45.412;10.852;2024-02-26T06:46:13;6.20;85.30
41547;DHT22;27271;45.412;10.852;2024-02-26T06:49:35;6.30;84.60
41547;DHT22;27271;45.412;10.852;2024-02-26T06:52:57;6.40;69.70
41547;DHT22;27271;45.412;10.852;2024-02-26T06:56:19;6.50;72.00
41547;DHT22;27271;45.412;10.852;2024-02-26T06:59:41;6.60;54.40
41547;DHT22;27271;45.412;10.852;2024-02-26T07:03:08;6.60;63.60
41547;DHT22;27271;45.412;10.852;2024-02-26T07:06:30;6.60;62.40
41547;DHT22;27271;45.412;10.852;2024-02-26T07:09:52;6.60;71.00
41547;DHT22;27271;45.412;10.852;2024-02-26T07:13:14;6.60;68.80
41547;DHT22;27271;45.412;10.852;2024-02-26T07:16:37;6.60;90.40
41547;DHT22;27271;45.412;10.852;2024-02-26T07:19:59;6.70;91.10
41547;DHT22;27271;45.412;10.852;2024-02-26T07:23:21;6.80;80.90
41547;DHT22;27271;45.412;10.852;2024-02-26T07:26:43;6.70;98.60
41547;DHT22;27271;45.412;10.852;2024-02-26T07:30:06;6.60;99.90
41547;DHT22;27271;45.412;10.852;2024-02-26T07:33:30;6.80;99.90
41547;DHT22;27271;45.412;10.852;2024-02-26T07:36:52;6.90;99.90
41547;DHT22;27271;45.412;10.852;2024-02-26T07:40:14;7.00;99.90
41547;DHT22;27271;45.412;10.852;2024-02-26T07:43:36;6.90;99.90
41547;DHT22;27271;45.412;10.852;2024-02-26T07:46:58;7.00;99.90
41547;DHT22;27271;45.412;10.852;2024-02-26T07:50:20;7.00;99.90
41547;DHT22;27271;45.412;10.852;2024-02-26T07:53:42;7.00;99.90
41547;DHT22;27271;45.412;10.852;2024-02-26T07:57:04;7.10;99.90
41547;DHT22;27271;45.412;10.852;2024-02-26T08:00:28;7.20;99.90
41547;DHT22;27271;45.412;10.852;2024-02-26T08:03:50;7.20;99.40
41547;DHT22;27271;45.412;10.852;2024-02-26T08:07:12;7.20;99.90
41547;DHT22;27271;45.412;10.852;2024-02-26T08:10:35;7.30;93.40
41547;DHT22;27271;45.412;10.852;2024-02-26T08:13:57;7.40;99.90
41547;DHT22;27271;45.412;10.852;2024-02-26T08:17:20;7.60;99.90
41547;DHT22;27271;45.412;10.852;2024-02-26T08:20:42;7.90;87.30
41547;DHT22;27271;45.412;10.852;2024-02-26T08:24:05;8.30;37.50
41547;DHT22;27271;45.412;10.852;2024-02-26T08:27:27;8.60;1.00
41547;DHT22;27271;45.412;10.852;2024-02-26T08:30:49;9.00;1.00
41547;DHT22;27271;45.412;10.852;2024-02-26T08:34:11;9.40;1.00
41547;DHT22;27271;45.412;10.852;2024-02-26T08:37:34;9.60;1.00
41547;DHT22;27271;45.412;10.852;2024-02-26T08:40:56;9.40;1.00
41547;DHT22;27271;45.412;10.852;2024-02-26T08:44:18;9.40;1.00
41547;DHT22;27271;45.412;10.852;2024-02-26T08:47:40;9.30;1.00
41547;DHT22;27271;45.412;10.852;2024-02-26T08:51:06;9.50;1.00
41547;DHT22;27271;45.412;10.852;2024-02-26T08:54:28;9.40;1.00
41547;DHT22;27271;45.412;10.852;2024-02-26T08:57:50;9.60;1.00
41547;DHT22;27271;45.412;10.852;2024-02-26T09:01:12;9.70;1.00
41547;DHT22;27271;45.412;10.852;2024-02-26T09:04:35;9.60;1.00
41547;DHT22;27271;45.412;10.852;2024-02-26T09:07:57;9.60;1.00
41547;DHT22;27271;45.412;10.852;2024-02-26T09:11:19;9.90;1.00
41547;DHT22;27271;45.412;10.852;2024-02-26T09:14:41;9.90;1.00
41547;DHT22;27271;45.412;10.852;2024-02-26T09:18:03;9.80;1.00
41547;DHT22;27271;45.412;10.852;2024-02-26T09:21:26;9.70;1.00
41547;DHT22;27271;45.412;10.852;2024-02-26T09:24:48;9.70;1.00
41547;DHT22;27271;45.412;10.852;2024-02-26T09:28:12;9.70;1.00
41547;DHT22;27271;45.412;10.852;2024-02-26T09:31:34;9.80;1.00
41547;DHT22;27271;45.412;10.852;2024-02-26T09:34:56;9.90;1.00
41547;DHT22;27271;45.412;10.852;2024-02-26T09:38:18;9.80;1.00
41547;DHT22;27271;45.412;10.852;2024-02-26T09:41:41;9.60;1.00
41547;DHT22;27271;45.412;10.852;2024-02-26T09:45:05;9.60;1.00
41547;DHT22;27271;45.412;10.852;2024-02-26T09:48:31;9.60;1.00
41547;DHT22;27271;45.412;10.852;2024-02-26T09:51:56;9.70;1.00
41547;DHT22;27271;45.412;10.852;2024-02-26T09:55:19;9.90;1.00
41547;DHT22;27271;45.412;10.852;2024-02-26T09:58:42;10.00;1.00
41547;DHT22;27271;45.412;10.852;2024-02-26T10:02:06;10.40;1.00
41547;DHT22;27271;45.412;10.852;2024-02-26T10:05:32;10.70;1.00
41547;DHT22;27271;45.412;10.852;2024-02-26T10:08:56;10.80;1.00
41547;DHT22;27271;45.412;10.852;2024-02-26T10:12:21;10.70;1.00
41547;DHT22;27271;45.412;10.852;2024-02-26T10:15:44;11.00;1.00
41547;DHT22;27271;45.412;10.852;2024-02-26T10:19:06;11.00;1.00
41547;DHT22;27271;45.412;10.852;2024-02-26T10:22:29;10.80;1.00
41547;DHT22;27271;45.412;10.852;2024-02-26T10:25:55;10.40;1.00
41547;DHT22;27271;45.412;10.852;2024-02-26T10:29:18;9.90;1.00
41547;DHT22;27271;45.412;10.852;2024-02-26T10:32:40;9.70;1.00
41547;DHT22;27271;45.412;10.852;2024-02-26T10:36:06;9.60;1.00
41547;DHT22;27271;45.412;10.852;2024-02-26T10:39:29;9.70;1.00
41547;DHT22;27271;45.412;10.852;2024-02-26T10:42:51;9.70;1.00
41547;DHT22;27271;45.412;10.852;2024-02-26T10:46:14;9.60;1.00
41547;DHT22;27271;45.412;10.852;2024-02-26T10:49:36;9.60;1.00
41547;DHT22;27271;45.412;10.852;2024-02-26T10:52:59;9.60;1.00
41547;DHT22;27271;45.412;10.852;2024-02-26T10:56:26;9.50;1.00
41547;DHT22;27271;45.412;10.852;2024-02-26T10:59:51;9.40;1.00
41547;DHT22;27271;45.412;10.852;2024-02-26T11:03:15;9.30;1.00
41547;DHT22;27271;45.412;10.852;2024-02-26T11:06:39;9.30;1.00
41547;DHT22;27271;45.412;10.852;2024-02-26T11:10:04;9.20;1.00
41547;DHT22;27271;45.412;10.852;2024-02-26T11:13:28;9.20;1.00
41547;DHT22;27271;45.412;10.852;2024-02-26T11:16:54;9.20;1.00
41547;DHT22;27271;45.412;10.852;2024-02-26T11:20:17;9.20;1.00
41547;DHT22;27271;45.412;10.852;2024-02-26T11:23:42;9.10;1.00
41547;DHT22;27271;45.412;10.852;2024-02-26T11:27:05;9.10;1.00
41547;DHT22;27271;45.412;10.852;2024-02-26T11:30:32;9.10;15.30
41547;DHT22;27271;45.412;10.852;2024-02-26T11:33:56;9.00;21.10
41547;DHT22;27271;45.412;10.852;2024-02-26T11:37:19;9.10;8.00
41547;DHT22;27271;45.412;10.852;2024-02-26T11:40:42;9.00;26.90
41547;DHT22;27271;45.412;10.852;2024-02-26T11:44:06;9.00;29.10
41547;DHT22;27271;45.412;10.852;2024-02-26T11:47:29;8.90;95.40
41547;DHT22;27271;45.412;10.852;2024-02-26T11:50:53;8.90;77.20
41547;DHT22;27271;45.412;10.852;2024-02-26T11:54:51;8.90;75.00
41547;DHT22;27271;45.412;10.852;2024-02-26T11:58:16;8.90;73.10
41547;DHT22;27271;45.412;10.852;2024-02-26T12:01:43;8.80;99.30
41547;DHT22;27271;45.412;10.852;2024-02-26T12:05:22;8.70;99.90
41547;DHT22;27271;45.412;10.852;2024-02-26T12:08:49;8.70;79.40
41547;DHT22;27271;45.412;10.852;2024-02-26T12:12:17;8.60;99.90
41547;DHT22;27271;45.412;10.852;2024-02-26T12:15:42;8.50;99.90
41547;DHT22;27271;45.412;10.852;2024-02-26T12:19:07;8.40;99.90
41547;DHT22;27271;45.412;10.852;2024-02-26T12:22:30;8.30;99.90
41547;DHT22;27271;45.412;10.852;2024-02-26T12:25:52;8.30;99.90
41547;DHT22;27271;45.412;10.852;2024-02-26T12:29:14;8.20;99.90
41547;DHT22;27271;45.412;10.852;2024-02-26T12:32:37;8.10;99.90
41547;DHT22;27271;45.412;10.852;2024-02-26T12:35:59;8.10;99.90
41547;DHT22;27271;45.412;10.852;2024-02-26T12:39:21;8.00;99.90
41547;DHT22;27271;45.412;10.852;2024-02-26T12:42:43;8.00;99.90
41547;DHT22;27271;45.412;10.852;2024-02-26T12:46:06;7.90;99.90
41547;DHT22;27271;45.412;10.852;2024-02-26T12:49:30;7.90;99.90
41547;DHT22;27271;45.412;10.852;2024-02-26T12:52:53;7.90;99.90
41547;DHT22;27271;45.412;10.852;2024-02-26T12:56:16;7.80;99.90
41547;DHT22;27271;45.412;10.852;2024-02-26T12:59:39;7.80;99.90
41547;DHT22;27271;45.412;10.852;2024-02-26T13:03:01;7.80;1.00
41547;DHT22;27271;45.412;10.852;2024-02-26T13:06:24;7.80;1.00
41547;DHT22;27271;45.412;10.852;2024-02-26T13:09:46;7.90;1.00
41547;DHT22;27271;45.412;10.852;2024-02-26T13:13:08;7.90;1.00
41547;DHT22;27271;45.412;10.852;2024-02-26T13:16:30;7.90;1.00
41547;DHT22;27271;45.412;10.852;2024-02-26T13:19:52;7.90;1.00
41547;DHT22;27271;45.412;10.852;2024-02-26T13:23:14;8.00;1.00
41547;DHT22;27271;45.412;10.852;2024-02-26T13:26:37;7.90;1.00
41547;DHT22;27271;45.412;10.852;2024-02-26T13:30:12;7.90;1.00
41547;DHT22;27271;45.412;10.852;2024-02-26T13:33:34;7.90;1.00
41547;DHT22;27271;45.412;10.852;2024-02-26T13:36:57;7.90;1.00
41547;DHT22;27271;45.412;10.852;2024-02-26T13:40:19;7.80;1.00
41547;DHT22;27271;45.412;10.852;2024-02-26T13:43:42;7.80;99.90
41547;DHT22;27271;45.412;10.852;2024-02-26T13:47:05;7.80;99.90
41547;DHT22;27271;45.412;10.852;2024-02-26T13:50:27;7.80;99.90
41547;DHT22;27271;45.412;10.852;2024-02-26T13:53:49;7.80;99.90
41547;DHT22;27271;45.412;10.852;2024-02-26T13:57:11;7.80;99.90
41547;DHT22;27271;45.412;10.852;2024-02-26T14:00:33;7.70;99.90
41547;DHT22;27271;45.412;10.852;2024-02-26T14:03:57;7.70;99.90
41547;DHT22;27271;45.412;10.852;2024-02-26T14:07:19;7.90;1.00
41547;DHT22;27271;45.412;10.852;2024-02-26T14:10:41;7.70;1.00
41547;DHT22;27271;45.412;10.852;2024-02-26T14:14:04;7.70;1.00
41547;DHT22;27271;45.412;10.852;2024-02-26T14:17:26;7.70;99.90
41547;DHT22;27271;45.412;10.852;2024-02-26T14:20:48;7.70;99.90
41547;DHT22;27271;45.412;10.852;2024-02-26T14:24:10;7.70;99.90
41547;DHT22;27271;45.412;10.852;2024-02-26T14:27:33;7.70;99.90
41547;DHT22;27271;45.412;10.852;2024-02-26T14:30:55;7.60;99.90
41547;DHT22;27271;45.412;10.852;2024-02-26T14:34:17;7.60;99.90
41547;DHT22;27271;45.412;10.852;2024-02-26T14:37:41;7.50;99.90
41547;DHT22;27271;45.412;10.852;2024-02-26T14:41:06;7.40;99.90
41547;DHT22;27271;45.412;10.852;2024-02-26T14:44:28;7.40;99.90
41547;DHT22;27271;45.412;10.852;2024-02-26T14:47:50;7.40;99.90
41547;DHT22;27271;45.412;10.852;2024-02-26T14:51:12;7.30;99.90
41547;DHT22;27271;45.412;10.852;2024-02-26T14:54:34;7.30;99.90
41547;DHT22;27271;45.412;10.852;2024-02-26T14:58:00;7.30;99.90
41547;DHT22;27271;45.412;10.852;2024-02-26T15:01:23;7.30;99.90
41547;DHT22;27271;45.412;10.852;2024-02-26T15:04:47;7.30;99.90
41547;DHT22;27271;45.412;10.852;2024-02-26T15:08:10;7.30;99.90
41547;DHT22;27271;45.412;10.852;2024-02-26T15:11:40;7.30;99.90
41547;DHT22;27271;45.412;10.852;2024-02-26T15:15:02;7.30;99.90
41547;DHT22;27271;45.412;10.852;2024-02-26T15:18:24;7.20;99.90
41547;DHT22;27271;45.412;10.852;2024-02-26T15:21:48;7.20;99.90
41547;DHT22;27271;45.412;10.852;2024-02-26T15:25:10;7.20;99.90
41547;DHT22;27271;45.412;10.852;2024-02-26T15:28:36;7.10;99.90
41547;DHT22;27271;45.412;10.852;2024-02-26T15:32:01;7.10;99.90
41547;DHT22;27271;45.412;10.852;2024-02-26T15:35:23;7.20;99.90
41547;DHT22;27271;45.412;10.852;2024-02-26T15:38:45;7.10;99.90
41547;DHT22;27271;45.412;10.852;2024-02-26T15:42:07;7.10;99.90
41547;DHT22;27271;45.412;10.852;2024-02-26T15:45:29;7.10;99.90
41547;DHT22;27271;45.412;10.852;2024-02-26T15:48:56;7.10;99.90
41547;DHT22;27271;45.412;10.852;2024-02-26T15:52:18;7.10;99.90
41547;DHT22;27271;45.412;10.852;2024-02-26T15:55:40;7.00;99.90
41547;DHT22;27271;45.412;10.852;2024-02-26T15:59:03;7.00;99.90
41547;DHT22;27271;45.412;10.852;2024-02-26T16:02:26;7.00;99.90
41547;DHT22;27271;45.412;10.852;2024-02-26T16:05:48;7.10;91.10
41547;DHT22;27271;45.412;10.852;2024-02-26T16:09:10;6.90;99.90
41547;DHT22;27271;45.412;10.852;2024-02-26T16:12:44;6.90;99.90
41547;DHT22;27271;45.412;10.852;2024-02-26T16:16:13;6.80;99.90
41547;DHT22;27271;45.412;10.852;2024-02-26T16:19:38;6.80;99.90
41547;DHT22;27271;45.412;10.852;2024-02-26T16:23:01;6.90;99.90
41547;DHT22;27271;45.412;10.852;2024-02-26T16:26:26;6.90;99.90
41547;DHT22;27271;45.412;10.852;2024-02-26T16:29:49;6.90;99.90
41547;DHT22;27271;45.412;10.852;2024-02-26T16:33:11;6.80;99.90
41547;DHT22;27271;45.412;10.852;2024-02-26T16:36:33;6.80;99.90
41547;DHT22;27271;45.412;10.852;2024-02-26T16:39:58;6.70;99.90
41547;DHT22;27271;45.412;10.852;2024-02-26T16:43:21;6.70;99.90
41547;DHT22;27271;45.412;10.852;2024-02-26T16:46:44;6.70;99.90
41547;DHT22;27271;45.412;10.852;2024-02-26T16:50:06;6.70;99.90
41547;DHT22;27271;45.412;10.852;2024-02-26T16:53:28;6.60;99.90
41547;DHT22;27271;45.412;10.852;2024-02-26T16:56:50;6.60;99.90
41547;DHT22;27271;45.412;10.852;2024-02-26T17:00:13;6.60;99.90
41547;DHT22;27271;45.412;10.852;2024-02-26T17:03:38;6.60;99.90
41547;DHT22;27271;45.412;10.852;2024-02-26T17:07:01;6.60;99.90
41547;DHT22;27271;45.412;10.852;2024-02-26T17:10:24;6.60;99.90
41547;DHT22;27271;45.412;10.852;2024-02-26T17:13:46;6.60;99.90
41547;DHT22;27271;45.412;10.852;2024-02-26T17:17:08;6.70;99.90
41547;DHT22;27271;45.412;10.852;2024-02-26T17:20:30;6.50;99.90
41547;DHT22;27271;45.412;10.852;2024-02-26T17:23:52;6.50;99.90
41547;DHT22;27271;45.412;10.852;2024-02-26T17:27:14;6.50;99.90
41547;DHT22;27271;45.412;10.852;2024-02-26T17:30:37;6.50;99.90
41547;DHT22;27271;45.412;10.852;2024-02-26T17:34:00;6.50;99.90
41547;DHT22;27271;45.412;10.852;2024-02-26T17:37:22;6.50;99.90
41547;DHT22;27271;45.412;10.852;2024-02-26T17:40:44;6.50;99.90
41547;DHT22;27271;45.412;10.852;2024-02-26T17:44:06;6.50;99.90
41547;DHT22;27271;45.412;10.852;2024-02-26T17:47:29;6.60;99.90
41547;DHT22;27271;45.412;10.852;2024-02-26T17:50:51;6.60;99.90
41547;DHT22;27271;45.412;10.852;2024-02-26T17:54:13;6.60;99.90
41547;DHT22;27271;45.412;10.852;2024-02-26T17:57:36;6.60;99.90
41547;DHT22;27271;45.412;10.852;2024-02-26T18:00:58;6.60;99.90
41547;DHT22;27271;45.412;10.852;2024-02-26T18:04:20;6.60;99.90
41547;DHT22;27271;45.412;10.852;2024-02-26T18:07:42;6.50;99.90
41547;DHT22;27271;45.412;10.852;2024-02-26T18:11:05;6.50;99.90
41547;DHT22;27271;45.412;10.852;2024-02-26T18:14:30;6.50;99.90
41547;DHT22;27271;45.412;10.852;2024-02-26T18:17:52;6.50;99.90
41547;DHT22;27271;45.412;10.852;2024-02-26T18:21:14;6.50;99.90
41547;DHT22;27271;45.412;10.852;2024-02-26T18:24:42;6.50;99.90
41547;DHT22;27271;45.412;10.852;2024-02-26T18:28:04;6.50;99.90
41547;DHT22;27271;45.412;10.852;2024-02-26T18:31:28;6.50;99.90
41547;DHT22;27271;45.412;10.852;2024-02-26T18:34:50;6.60;99.90
41547;DHT22;27271;45.412;10.852;2024-02-26T18:38:12;6.60;99.90
41547;DHT22;27271;45.412;10.852;2024-02-26T18:41:35;6.70;99.90
41547;DHT22;27271;45.412;10.852;2024-02-26T18:44:57;6.70;99.90
41547;DHT22;27271;45.412;10.852;2024-02-26T18:48:20;6.70;99.90
41547;DHT22;27271;45.412;10.852;2024-02-26T18:51:43;6.70;99.90
41547;DHT22;27271;45.412;10.852;2024-02-26T18:55:05;6.80;99.90
41547;DHT22;27271;45.412;10.852;2024-02-26T18:58:28;6.70;99.90
41547;DHT22;27271;45.412;10.852;2024-02-26T19:01:50;6.80;98.50
41547;DHT22;27271;45.412;10.852;2024-02-26T19:05:13;6.70;99.90
41547;DHT22;27271;45.412;10.852;2024-02-26T19:08:35;6.70;99.90
41547;DHT22;27271;45.412;10.852;2024-02-26T19:11:58;6.60;99.90
41547;DHT22;27271;45.412;10.852;2024-02-26T19:15:20;6.60;99.90
41547;DHT22;27271;45.412;10.852;2024-02-26T19:18:42;6.60;99.90
41547;DHT22;27271;45.412;10.852;2024-02-26T19:22:05;6.60;99.90
41547;DHT22;27271;45.412;10.852;2024-02-26T19:25:34;6.60;99.90
41547;DHT22;27271;45.412;10.852;2024-02-26T19:28:56;6.50;99.90
41547;DHT22;27271;45.412;10.852;2024-02-26T19:32:18;6.50;99.90
41547;DHT22;27271;45.412;10.852;2024-02-26T19:35:40;6.50;99.90
41547;DHT22;27271;45.412;10.852;2024-02-26T19:39:02;6.50;1.00
41547;DHT22;27271;45.412;10.852;2024-02-26T19:42:25;6.40;1.00
41547;DHT22;27271;45.412;10.852;2024-02-26T19:45:47;6.40;1.00
41547;DHT22;27271;45.412;10.852;2024-02-26T19:49:09;6.40;22.40
41547;DHT22;27271;45.412;10.852;2024-02-26T19:52:35;6.40;99.90
41547;DHT22;27271;45.412;10.852;2024-02-26T19:55:58;6.40;99.90
41547;DHT22;27271;45.412;10.852;2024-02-26T19:59:20;6.40;99.90
41547;DHT22;27271;45.412;10.852;2024-02-26T20:02:42;6.40;99.90
41547;DHT22;27271;45.412;10.852;2024-02-26T20:06:05;6.50;99.90
41547;DHT22;27271;45.412;10.852;2024-02-26T20:09:27;6.50;99.90
41547;DHT22;27271;45.412;10.852;2024-02-26T20:12:52;6.50;99.90
41547;DHT22;27271;45.412;10.852;2024-02-26T20:16:17;6.40;99.90
41547;DHT22;27271;45.412;10.852;2024-02-26T20:19:39;6.40;99.90
41547;DHT22;27271;45.412;10.852;2024-02-26T20:23:04;6.50;99.90
41547;DHT22;27271;45.412;10.852;2024-02-26T20:26:26;6.50;99.90
41547;DHT22;27271;45.412;10.852;2024-02-26T20:29:48;6.50;99.90
41547;DHT22;27271;45.412;10.852;2024-02-26T20:33:11;6.50;99.90
41547;DHT22;27271;45.412;10.852;2024-02-26T20:36:35;6.50;99.90
41547;DHT22;27271;45.412;10.852;2024-02-26T20:39:57;6.50;99.90
41547;DHT22;27271;45.412;10.852;2024-02-26T20:43:19;6.50;99.90
41547;DHT22;27271;45.412;10.852;2024-02-26T20:46:42;6.50;99.90
41547;DHT22;27271;45.412;10.852;2024-02-26T20:50:05;6.60;99.90
41547;DHT22;27271;45.412;10.852;2024-02-26T20:53:27;6.60;99.90
41547;DHT22;27271;45.412;10.852;2024-02-26T20:56:49;6.60;99.90
41547;DHT22;27271;45.412;10.852;2024-02-26T21:00:12;6.70;99.90
41547;DHT22;27271;45.412;10.852;2024-02-26T21:03:35;6.70;99.90
41547;DHT22;27271;45.412;10.852;2024-02-26T21:06:58;6.70;99.90
41547;DHT22;27271;45.412;10.852;2024-02-26T21:10:20;6.60;99.90
41547;DHT22;27271;45.412;10.852;2024-02-26T21:13:45;6.60;99.90
41547;DHT22;27271;45.412;10.852;2024-02-26T21:17:08;6.60;99.90
41547;DHT22;27271;45.412;10.852;2024-02-26T21:20:30;6.60;99.90
41547;DHT22;27271;45.412;10.852;2024-02-26T21:23:55;6.80;99.90
41547;DHT22;27271;45.412;10.852;2024-02-26T21:27:20;6.70;99.90